East Lyme, CT (06333)

9:43 PM EDT on October 22, 2014 (GMT -0400)
Village Drive | Change Station
CLOSE
Current Station
Personal Weather Station
Location: East Lyme, CT
Elevation: 170 ft
Nearby Weather Stations
Active Advisory: Wind Advisory Active Notice: Record Report

Elev 170 ft 41.38 °N, 72.22 °W | Updated 1 second ago

Rain
Rain
49.5 °F
Feels Like 48 °F
N
5.0
Wind Variable Wind from NNW
Gusts 16.0 mph

Today
High -- | Low -- °F
--% Chance of Precip.
Yesterday
High -- | Low -- °F
Precip. -- in
7:08 AM 5:57 PM
Waning Crescent, 1% visible
Pressure 29.69 in
Visibility 8.0 miles
Clouds Mostly Cloudy 1200 ft
Mostly Cloudy 1800 ft
Overcast 3700 ft
Windchill 48 °F
Dew Point 49 °F
Humidity 97%
Rainfall 0.56 in
Snow Depth Not available.
UV 0 out of 12
Pollen .10 out of 12
Ozone Good
PM2.5 Good
Flu Activity Sporadic
SPECI KGON 230133Z 07014KT 8SM -RA BKN012 BKN018 OVC037 11/11 A2969 RMK AO2 PK WND 02035/0104 WSHFT 0119 LTG DSNT SE-W PRESRR P0007 T01110106

More Conditions Fewer Conditions

Pressure 29.69 in
Visibility 8.0 miles
Clouds Mostly Cloudy 1200 ft
Mostly Cloudy 1800 ft
Overcast 3700 ft
Windchill 48 °F
Dew Point 49 °F
Humidity 97%
Rainfall 0.56 in
Snow Depth Not available.
UV 0 out of 12
Pollen .10 out of 12
Ozone Good
PM2.5 Good
Flu Activity Sporadic
SPECI KGON 230133Z 07014KT 8SM -RA BKN012 BKN018 OVC037 11/11 A2969 RMK AO2 PK WND 02035/0104 WSHFT 0119 LTG DSNT SE-W PRESRR P0007 T01110106

More Conditions Fewer Conditions

10-Day Weather Forecast

Almanac

Astronomy

Oct. 22, 2014 Rise Set
Actual Time 7:08 AM EDT 5:57 PM EDT
Civil Twilight 6:40 AM EDT 6:25 PM EDT
Nautical Twilight 6:08 AM EDT 6:57 PM EDT
Astronomical Twilight 5:36 AM EDT 7:29 PM EDT
Moon 5:46 AM EDT (10/22) 5:23 PM EDT (10/22)
Length of Visible Light 11h 45m
Length of Day
10h 48m
Tomorrow will be 2m 36s shorter.
Waning Crescent, 1% of the Moon is Illuminated
Today
Waning Crescent
Oct 23
New
Oct 30
First Quarter
Nov 6
Full
Nov 14
Last Quarter

Today's Extremes

State Highs State Lows

Community

WunderPhotos

Upload Photos

1,764,108 photos uploaded!

Nearby

Air Quality

  Air Quality AQ Index Pollutant
Yesterday Good
PM2.5
Yesterday Good
OZONE
Current Good
OZONE
Current Good
PM2.5
Wednesday Good
PM2.5
Thursday Good
PM2.5

Snow Depth

Station Depth Elevation
No new snow has been reported.

Earthquake Activity

City Distance Mag. Time & Date
No recent earthquake activity has been reported nearby.
Minimum magnitude displayed is 2.5.

Coastal Water Temperatures

Place Temperature
New London, CT 62.1 °F
New Haven, CT 62.1 °F
Newport, RI 61.0 °F
Quonset Point, RI 60.1 °F
Conimicut Light, RI 61.0 °F
Providence, RI 62.1 °F

Nearby Weather Stations